Time;durP1;ratioP1;P1;durP2;ratioP2;P2;SDS_P1;SDS_P2;PMS_P1;PMS_P2;Temp;Humidity;BMP_temperature;BMP_pressure;BME280_temperature;BME280_humidity;BME280_pressure;Samples;Min_cycle;Max_cycle;Signal;HPM_P1;HPM_P2
2022/11/16 00:00:03;;;;;;;358.92;120.00;;;;;;;6.54;93.71;99424.38;311237;31;2870;-76
2022/11/16 00:00:14;;;;;;;359.60;117.20;;;;;;;6.54;93.97;99418.31;314256;31;1111;-76
2022/11/16 00:00:24;;;;;;;360.43;118.07;;;;;;;6.51;93.76;99424.44;312345;31;4226;-77
2022/11/16 00:00:35;;;;;;;366.17;121.43;;;;;;;6.51;93.61;99421.00;312318;31;6513;-78
2022/11/16 00:00:45;;;;;;;370.93;125.20;;;;;;;6.53;94.07;99425.25;307558;32;1328;-78
2022/11/16 00:01:18;;;;;;;369.23;124.70;;;;;;;6.52;93.68;99420.09;311133;31;2990;-77
2022/11/16 00:01:30;;;;;;;362.65;118.28;;;;;;;6.52;93.90;99433.97;309714;31;1271;-77
2022/11/16 00:01:41;;;;;;;361.85;119.20;;;;;;;6.52;93.59;99435.72;307926;32;1998;-77
2022/11/16 00:01:51;;;;;;;366.30;120.33;;;;;;;6.52;93.99;99428.75;302729;32;2572;-77
2022/11/16 00:02:01;;;;;;;368.48;119.32;;;;;;;6.53;93.68;99422.66;302932;32;3194;-78
2022/11/16 00:02:12;;;;;;;369.63;119.73;;;;;;;6.54;93.67;99428.72;306315;32;1375;-77
2022/11/16 00:02:22;;;;;;;368.25;119.97;;;;;;;6.55;93.59;99425.22;305507;32;4171;-77
2022/11/16 00:02:33;;;;;;;364.17;121.03;;;;;;;6.57;93.58;99431.22;302617;32;4235;-77
2022/11/16 00:02:43;;;;;;;361.65;119.30;;;;;;;6.52;93.52;99423.56;297116;33;1475;-77
2022/11/16 00:02:53;;;;;;;359.67;119.17;;;;;;;6.54;93.78;99423.53;300545;32;3931;-79
2022/11/16 00:03:05;;;;;;;361.83;119.88;;;;;;;6.51;93.77;99429.66;302329;32;3132;-77
2022/11/16 00:03:15;;;;;;;366.08;120.38;;;;;;;6.51;93.69;99431.41;300152;32;1325;-76
2022/11/16 00:03:26;;;;;;;366.75;121.15;;;;;;;6.51;93.60;99426.19;301561;32;3651;-77
2022/11/16 00:03:36;;;;;;;364.17;120.30;;;;;;;6.51;93.69;99419.25;299528;32;2489;-77
2022/11/16 00:03:47;;;;;;;361.17;119.05;;;;;;;6.51;93.43;99424.44;294905;33;3253;-77
2022/11/16 00:03:58;;;;;;;361.63;119.93;;;;;;;6.49;93.89;99428.88;292199;33;1339;-77
2022/11/16 00:04:10;;;;;;;363.88;120.78;;;;;;;6.50;94.02;99434.94;290376;33;3972;-78
2022/11/16 00:04:21;;;;;;;366.65;123.05;;;;;;;6.48;93.69;99426.31;286206;34;5099;-77
2022/11/16 00:04:31;;;;;;;368.63;124.17;;;;;;;6.47;93.83;99427.22;285482;33;5819;-77
2022/11/16 00:04:42;;;;;;;367.08;123.80;;;;;;;6.45;94.10;99426.41;289335;34;972;-77
2022/11/16 00:04:52;;;;;;;365.90;122.90;;;;;;;6.44;93.62;99427.28;288022;34;6101;-77
2022/11/16 00:05:03;;;;;;;367.30;120.10;;;;;;;6.47;94.11;99428.06;287523;34;6612;-77
2022/11/16 00:05:13;;;;;;;367.30;118.53;;;;;;;6.46;94.02;99425.50;286527;34;889;-77
2022/11/16 00:05:24;;;;;;;368.35;118.13;;;;;;;6.47;93.59;99424.59;283953;34;4826;-77
2022/11/16 00:05:34;;;;;;;372.95;120.22;;;;;;;6.47;93.93;99420.25;284299;34;5097;-77
2022/11/16 00:05:45;;;;;;;373.13;121.93;;;;;;;6.49;93.91;99421.06;284837;34;964;-78
2022/11/16 00:06:00;;;;;;;370.73;123.32;;;;;;;6.50;93.78;99429.72;281801;34;3863;-78
2022/11/16 00:06:10;;;;;;;358.83;120.57;;;;;;;6.48;94.03;99419.38;281635;34;5139;-77
2022/11/16 00:06:21;;;;;;;357.52;119.68;;;;;;;6.48;93.58;99428.91;280922;34;6535;-77
2022/11/16 00:06:31;;;;;;;360.03;119.87;;;;;;;6.44;93.49;99415.16;279626;34;6959;-77
2022/11/16 00:06:42;;;;;;;361.88;122.32;;;;;;;6.43;93.73;99413.44;280975;35;1167;-77
2022/11/16 00:06:52;;;;;;;361.57;122.80;;;;;;;6.42;93.57;99423.88;279479;34;7049;-76
2022/11/16 00:07:03;;;;;;;360.15;121.50;;;;;;;6.44;94.05;99422.94;277259;34;8723;-77
2022/11/16 00:07:15;;;;;;;361.23;122.20;;;;;;;6.45;93.91;99424.66;275905;35;855;-77
2022/11/16 00:07:25;;;;;;;362.95;122.40;;;;;;;6.45;93.99;99423.81;274164;35;8494;-78
2022/11/16 00:07:37;;;;;;;364.90;123.22;;;;;;;6.45;93.74;99421.19;274294;35;7506;-77
2022/11/16 00:09:54;;;;;;;352.27;110.59;;;;;;;6.43;94.00;99417.78;2498078;27;20254;-78
2022/11/16 00:10:05;;;;;;;368.53;121.37;;;;;;;6.42;94.10;99419.53;353024;28;1965;-78
2022/11/16 00:10:15;;;;;;;367.15;122.40;;;;;;;6.42;93.96;99416.09;350249;28;5656;-78
2022/11/16 00:10:26;;;;;;;362.08;119.93;;;;;;;6.43;94.15;99412.59;347645;28;1214;-77
2022/11/16 00:10:36;;;;;;;360.97;118.30;;;;;;;6.42;94.08;99408.28;347839;28;869;-77
2022/11/16 00:10:46;;;;;;;363.85;119.75;;;;;;;6.41;94.06;99417.81;347649;28;1538;-77
2022/11/16 00:11:14;;;;;;;364.63;120.97;;;;;;;6.40;94.04;99415.28;344960;28;1441;-77
2022/11/16 00:11:24;;;;;;;358.40;116.75;;;;;;;6.40;94.29;99408.31;347486;28;1345;-76
2022/11/16 00:11:35;;;;;;;359.90;118.63;;;;;;;6.42;94.01;99418.69;347683;28;999;-78
2022/11/16 00:11:52;;;;;;;360.48;119.88;;;;;;;6.41;94.29;99417.81;347538;28;1206;-79
2022/11/16 00:12:04;;;;;;;359.17;118.05;;;;;;;6.41;94.18;99417.81;349748;28;1011;-78
2022/11/16 00:12:16;;;;;;;361.08;115.97;;;;;;;6.41;94.46;99414.38;349509;28;1497;-79
2022/11/16 00:12:26;;;;;;;362.27;118.78;;;;;;;6.42;93.84;99418.69;350443;28;1386;-78
2022/11/16 00:12:37;;;;;;;366.93;122.67;;;;;;;6.41;93.94;99409.19;348931;28;888;-78
2022/11/16 00:12:49;;;;;;;369.38;122.82;;;;;;;6.41;94.21;99414.38;351690;28;1510;-78
2022/11/16 00:12:59;;;;;;;369.27;123.60;;;;;;;6.42;94.14;99408.28;350894;28;1219;-78
2022/11/16 00:13:09;;;;;;;368.55;122.20;;;;;;;6.41;94.42;99415.22;347955;28;1337;-78
2022/11/16 00:13:20;;;;;;;370.60;123.10;;;;;;;6.42;94.04;99410.88;347653;28;856;-78
2022/11/16 00:13:32;;;;;;;373.38;121.88;;;;;;;6.39;94.16;99410.97;346253;28;1604;-77
2022/11/16 00:13:43;;;;;;;369.45;120.68;;;;;;;6.41;93.94;99411.78;345868;28;1331;-78
2022/11/16 00:13:54;;;;;;;369.48;121.32;;;;;;;6.38;94.07;99415.31;346466;28;912;-78
2022/11/16 00:14:04;;;;;;;366.73;119.65;;;;;;;6.40;93.84;99415.28;346215;28;879;-78
2022/11/16 00:14:15;;;;;;;367.87;120.03;;;;;;;6.40;93.92;99407.47;347886;28;1192;-77
2022/11/16 00:14:27;;;;;;;366.17;119.43;;;;;;;6.39;94.17;99413.56;346171;28;1377;-77
2022/11/16 00:14:38;;;;;;;370.02;120.13;;;;;;;6.39;93.80;99410.97;341853;28;1492;-77
2022/11/16 00:14:48;;;;;;;369.17;119.38;;;;;;;6.39;94.48;99413.56;344319;28;1277;-77
2022/11/16 00:15:00;;;;;;;366.77;118.07;;;;;;;6.40;94.13;99415.28;344928;28;1502;-77
2022/11/16 00:15:10;;;;;;;365.52;119.07;;;;;;;6.38;94.35;99404.06;341530;28;2021;-78
2022/11/16 00:15:21;;;;;;;363.80;118.18;;;;;;;6.38;93.90;99411.84;343525;28;1557;-77
2022/11/16 00:15:32;;;;;;;367.57;119.20;;;;;;;6.36;94.15;99408.44;342152;28;1330;-77
2022/11/16 00:15:43;;;;;;;366.10;119.68;;;;;;;6.37;93.88;99420.56;343412;28;1299;-77
2022/11/16 00:15:56;;;;;;;372.20;121.50;;;;;;;6.35;94.30;99418.00;343833;28;1375;-78
2022/11/16 00:16:07;;;;;;;371.35;120.20;;;;;;;6.34;93.96;99406.75;341958;28;1416;-76
2022/11/16 00:16:17;;;;;;;367.27;122.95;;;;;;;6.34;94.17;99409.34;344405;28;1606;-76
2022/11/16 00:16:29;;;;;;;364.55;121.60;;;;;;;6.35;93.91;99412.78;342251;28;1232;-78
2022/11/16 00:16:39;;;;;;;363.35;120.32;;;;;;;6.36;94.33;99413.66;339756;29;1295;-77
2022/11/16 00:16:50;;;;;;;363.40;120.90;;;;;;;6.34;94.28;99406.75;340803;28;1818;-78
2022/11/16 00:17:00;;;;;;;364.40;121.40;;;;;;;6.34;94.16;99409.34;340506;28;1249;-78
2022/11/16 00:17:12;;;;;;;361.53;119.70;;;;;;;6.34;93.79;99411.94;337202;29;1274;-78
2022/11/16 00:17:22;;;;;;;363.63;118.72;;;;;;;6.34;93.83;99411.94;335827;29;989;-78
2022/11/16 00:17:33;;;;;;;363.17;121.60;;;;;;;6.33;93.84;99405.03;338182;29;1291;-77
2022/11/16 00:17:43;;;;;;;365.20;123.10;;;;;;;6.34;94.25;99409.34;339479;28;1615;-77
2022/11/16 00:17:53;;;;;;;363.33;122.97;;;;;;;6.30;93.74;99405.13;337047;29;1244;-77
2022/11/16 00:18:04;;;;;;;366.58;121.38;;;;;;;6.30;94.33;99415.50;337587;29;1355;-77
2022/11/16 00:18:16;;;;;;;360.85;120.93;;;;;;;6.27;94.25;99410.41;338074;29;1348;-77
2022/11/16 00:18:26;;;;;;;360.90;120.47;;;;;;;6.27;94.41;99410.41;335865;29;1310;-78
2022/11/16 00:18:36;;;;;;;360.30;120.15;;;;;;;6.28;94.11;99409.50;335194;29;1466;-76
2022/11/16 00:18:47;;;;;;;364.40;122.33;;;;;;;6.29;94.21;99413.81;332858;29;4488;-76
2022/11/16 00:18:59;;;;;;;365.30;123.30;;;;;;;6.29;93.94;99403.41;338134;29;3410;-78
2022/11/16 00:19:09;;;;;;;367.52;124.25;;;;;;;6.29;94.40;99406.00;334437;29;1770;-78
2022/11/16 00:19:20;;;;;;;367.80;121.78;;;;;;;6.30;94.17;99407.72;336847;29;3347;-77
2022/11/16 00:19:30;;;;;;;374.48;122.85;;;;;;;6.31;94.42;99406.81;340713;29;1380;-77
2022/11/16 00:19:41;;;;;;;370.37;122.07;;;;;;;6.30;94.03;99405.13;334552;29;1312;-77
2022/11/16 00:19:51;;;;;;;367.25;121.40;;;;;;;6.31;94.19;99406.81;335633;29;2275;-77
2022/11/16 00:20:03;;;;;;;369.30;124.50;;;;;;;6.33;93.94;99404.19;336686;29;1387;-79
2022/11/16 00:20:14;;;;;;;371.70;125.30;;;;;;;6.33;94.11;99404.19;333075;29;1498;-77
2022/11/16 00:20:24;;;;;;;372.00;125.45;;;;;;;6.32;94.01;99408.53;333303;29;1312;-77
2022/11/16 00:20:37;;;;;;;370.23;123.13;;;;;;;6.33;94.22;99399.84;334477;29;1675;-78
2022/11/16 00:20:48;;;;;;;366.92;121.10;;;;;;;6.33;93.86;99402.44;333350;29;1957;-78
2022/11/16 00:20:58;;;;;;;368.88;123.32;;;;;;;6.33;94.31;99402.44;332941;29;1647;-78
2022/11/16 00:21:09;;;;;;;366.05;121.43;;;;;;;6.36;94.23;99400.66;329575;29;1868;-77
2022/11/16 00:21:19;;;;;;;364.97;122.53;;;;;;;6.34;93.78;99398.09;330776;29;1323;-78
2022/11/16 00:21:30;;;;;;;362.15;122.45;;;;;;;6.34;94.06;99398.09;331430;29;1850;-78
2022/11/16 00:21:40;;;;;;;361.87;121.60;;;;;;;6.34;93.71;99405.88;334274;29;1972;-78
2022/11/16 00:21:51;;;;;;;361.42;119.97;;;;;;;6.36;93.90;99398.06;327901;30;1523;-78
2022/11/16 00:22:01;;;;;;;360.63;119.22;;;;;;;6.34;94.46;99391.16;326790;30;1805;-78
2022/11/16 00:22:12;;;;;;;363.97;121.53;;;;;;;6.34;94.40;99391.16;324405;30;873;-77
2022/11/16 00:22:22;;;;;;;365.48;123.07;;;;;;;6.35;93.88;99397.19;326016;30;2044;-78
2022/11/16 00:22:33;;;;;;;367.37;124.57;;;;;;;6.33;94.44;99394.66;327710;30;2172;-78
2022/11/16 00:22:43;;;;;;;365.80;124.90;;;;;;;6.35;93.98;99392.00;326398;30;2440;-78
2022/11/16 00:22:53;;;;;;;367.73;126.63;;;;;;;6.36;93.68;99392.84;323261;30;1250;-78
2022/11/16 00:23:04;;;;;;;367.83;123.27;;;;;;;6.37;93.75;99395.41;322474;30;2559;-77
2022/11/16 00:23:14;;;;;;;368.63;121.28;;;;;;;6.37;94.33;99395.41;322098;30;2003;-77
2022/11/16 00:23:25;;;;;;;366.17;120.13;;;;;;;6.37;93.95;99394.56;317664;30;1305;-78
2022/11/16 00:23:37;;;;;;;362.50;119.65;;;;;;;6.40;93.80;99394.47;320628;30;1020;-77
2022/11/16 00:23:47;;;;;;;363.45;119.60;;;;;;;6.40;94.02;99395.34;321431;30;1657;-77
2022/11/16 00:23:58;;;;;;;364.70;118.17;;;;;;;6.41;94.15;99398.78;320098;30;864;-77
2022/11/16 00:24:11;;;;;;;365.35;120.53;;;;;;;6.41;94.10;99391.84;310848;31;1355;-77
2022/11/16 00:24:22;;;;;;;368.30;123.35;;;;;;;6.42;94.03;99392.69;314170;31;2470;-77
2022/11/16 00:24:32;;;;;;;370.70;124.78;;;;;;;6.43;93.59;99397.84;313883;31;2859;-78
2022/11/16 00:24:42;;;;;;;368.55;123.72;;;;;;;6.41;94.01;99391.84;311867;31;1910;-77
2022/11/16 00:24:53;;;;;;;365.17;124.97;;;;;;;6.40;93.78;99390.13;310877;31;1213;-78
2022/11/16 00:25:04;;;;;;;364.03;124.47;;;;;;;6.41;94.02;99393.59;309726;31;3170;-77
2022/11/16 00:25:14;;;;;;;361.93;123.07;;;;;;;6.38;93.63;99393.66;308533;31;3667;-77
2022/11/16 00:25:25;;;;;;;360.20;120.40;;;;;;;6.38;93.82;99386.72;309089;31;1594;-77
2022/11/16 00:25:35;;;;;;;361.10;118.40;;;;;;;6.40;93.79;99394.47;306903;32;2451;-77
2022/11/16 00:25:45;;;;;;;361.73;118.67;;;;;;;6.41;93.45;99385.78;306595;32;1333;-78
2022/11/16 00:26:04;;;;;;;362.10;118.17;;;;;;;6.42;94.14;99392.69;305577;32;881;-78
2022/11/16 00:26:14;;;;;;;362.45;118.28;;;;;;;6.41;93.76;99391.00;301312;32;2860;-78
2022/11/16 00:26:25;;;;;;;360.13;117.80;;;;;;;6.42;93.85;99387.50;302262;32;1331;-77
2022/11/16 00:26:35;;;;;;;358.88;118.78;;;;;;;6.42;93.66;99392.69;304392;32;3486;-79
2022/11/16 00:26:46;;;;;;;357.67;118.67;;;;;;;6.42;93.43;99390.09;303122;32;4284;-77
2022/11/16 00:26:56;;;;;;;357.33;119.30;;;;;;;6.42;93.26;99387.50;299246;33;992;-77
2022/11/16 00:27:07;;;;;;;356.42;119.63;;;;;;;6.43;93.53;99381.41;297739;33;5034;-77
2022/11/16 00:27:18;;;;;;;357.87;121.90;;;;;;;6.43;93.39;99384.84;296329;33;4317;-77
2022/11/16 00:27:29;;;;;;;363.58;122.15;;;;;;;6.45;93.30;99387.41;296984;32;4423;-78
2022/11/16 00:27:39;;;;;;;365.60;121.47;;;;;;;6.44;93.43;99389.16;298217;33;886;-78
2022/11/16 00:27:49;;;;;;;366.38;121.63;;;;;;;6.45;93.69;99387.41;296774;33;3158;-77
2022/11/16 00:28:00;;;;;;;366.90;124.20;;;;;;;6.42;93.12;99382.28;293338;33;5174;-77
2022/11/16 00:28:10;;;;;;;360.85;122.80;;;;;;;6.42;93.25;99384.88;293040;33;1817;-77
2022/11/16 00:28:21;;;;;;;364.13;123.80;;;;;;;6.43;93.43;99379.66;293076;33;3641;-77
2022/11/16 00:28:31;;;;;;;364.98;123.38;;;;;;;6.43;93.55;99389.19;289446;33;5123;-79
2022/11/16 00:28:42;;;;;;;370.67;126.33;;;;;;;6.40;93.27;99384.94;286852;34;1225;-78
2022/11/16 00:28:52;;;;;;;371.35;128.30;;;;;;;6.41;93.68;99384.03;289440;33;4910;-78
2022/11/16 00:29:03;;;;;;;371.60;127.57;;;;;;;6.39;93.82;99384.97;289088;33;6221;-78
2022/11/16 00:29:14;;;;;;;369.02;124.53;;;;;;;6.37;93.57;99377.22;288215;33;8132;-77
2022/11/16 00:29:25;;;;;;;368.88;121.00;;;;;;;6.37;93.75;99385.00;290309;34;1353;-78
2022/11/16 00:29:35;;;;;;;364.98;119.65;;;;;;;6.36;93.44;99387.66;289268;33;6525;-78
2022/11/16 00:29:46;;;;;;;361.70;120.22;;;;;;;6.36;93.67;99379.84;288644;33;5825;-78
2022/11/16 00:29:57;;;;;;;359.70;123.03;;;;;;;6.32;93.66;99382.53;288226;34;975;-78
2022/11/16 00:30:09;;;;;;;363.83;123.97;;;;;;;6.33;93.77;99384.25;286367;34;4407;-78
2022/11/16 00:30:19;;;;;;;368.20;125.65;;;;;;;6.33;93.84;99378.19;286626;34;4125;-77
2022/11/16 00:30:30;;;;;;;369.90;125.18;;;;;;;6.32;93.53;99379.94;285320;34;5731;-77
2022/11/16 00:30:40;;;;;;;369.23;127.23;;;;;;;6.33;93.74;99381.66;281019;35;1306;-78
2022/11/16 00:30:59;;;;;;;367.85;127.68;;;;;;;6.32;93.67;99381.69;278107;35;7432;-77
2022/11/16 00:31:10;;;;;;;363.88;122.22;;;;;;;6.34;93.48;99385.09;278329;35;1399;-76
2022/11/16 00:33:18;;;;;;;352.62;114.84;;;;;;;6.36;93.25;99383.31;2492999;27;20277;-77
2022/11/16 00:33:28;;;;;;;364.83;121.43;;;;;;;6.38;93.71;99380.66;350364;28;1241;-77
2022/11/16 00:33:38;;;;;;;363.20;122.28;;;;;;;6.37;93.60;99376.38;347734;28;883;-77
2022/11/16 00:33:49;;;;;;;362.97;121.20;;;;;;;6.38;93.36;99380.66;347813;28;939;-77
2022/11/16 00:33:59;;;;;;;364.10;120.72;;;;;;;6.37;93.71;99374.63;349018;28;1325;-77
2022/11/16 00:34:10;;;;;;;367.10;120.60;;;;;;;6.37;93.40;99379.81;347563;28;1369;-77
2022/11/16 00:34:21;;;;;;;367.17;121.05;;;;;;;6.38;93.33;99380.66;349085;28;1334;-77
2022/11/16 00:34:31;;;;;;;362.45;118.88;;;;;;;6.38;93.09;99375.47;347742;28;1386;-77
2022/11/16 00:34:42;;;;;;;360.87;118.83;;;;;;;6.37;93.40;99374.63;348930;28;1320;-77
2022/11/16 00:34:52;;;;;;;359.60;117.80;;;;;;;6.39;93.28;99382.38;349324;28;986;-79
2022/11/16 00:35:03;;;;;;;366.60;121.27;;;;;;;6.39;93.47;99379.78;348977;28;1361;-79
2022/11/16 00:35:13;;;;;;;366.88;122.07;;;;;;;6.37;93.43;99374.63;347534;28;967;-78
2022/11/16 00:35:23;;;;;;;365.48;120.57;;;;;;;6.37;93.11;99378.97;346759;28;1438;-78
2022/11/16 00:35:38;;;;;;;360.07;119.37;;;;;;;6.36;93.44;99374.66;346411;28;904;-79
2022/11/16 00:35:48;;;;;;;356.75;122.32;;;;;;;6.38;93.09;99375.47;343511;28;1291;-78
2022/11/16 00:36:02;;;;;;;356.20;123.63;;;;;;;6.37;93.09;99377.22;346363;28;1251;-78
2022/11/16 00:36:13;;;;;;;361.30;123.05;;;;;;;6.37;93.46;99378.97;346259;28;960;-78
2022/11/16 00:36:23;;;;;;;361.05;121.38;;;;;;;6.37;93.11;99379.81;346449;28;994;-78
2022/11/16 00:36:34;;;;;;;363.73;120.17;;;;;;;6.38;92.88;99381.53;345256;28;1168;-78
2022/11/16 00:36:44;;;;;;;368.48;121.72;;;;;;;6.39;93.41;99374.56;347458;28;2251;-78
2022/11/16 00:36:55;;;;;;;371.10;123.67;;;;;;;6.40;93.62;99376.28;345790;28;1339;-78
2022/11/16 00:37:05;;;;;;;367.88;123.72;;;;;;;6.38;93.40;99375.47;348957;28;1642;-78
2022/11/16 00:37:16;;;;;;;365.97;123.77;;;;;;;6.37;93.08;99381.56;350295;28;1314;-78
2022/11/16 00:37:26;;;;;;;364.50;122.70;;;;;;;6.37;93.07;99379.81;346077;28;1752;-80
2022/11/16 00:37:37;;;;;;;363.83;124.33;;;;;;;6.36;93.45;99372.06;343294;28;3103;-78
2022/11/16 00:37:48;;;;;;;362.48;125.50;;;;;;;6.37;93.48;99378.97;344880;28;2447;-78
2022/11/16 00:37:58;;;;;;;369.17;130.63;;;;;;;6.36;93.16;99374.66;346397;28;1643;-78
2022/11/16 00:38:09;;;;;;;370.98;129.55;;;;;;;6.35;93.45;99376.41;344480;28;3512;-78
2022/11/16 00:38:19;;;;;;;373.03;129.27;;;;;;;6.37;93.64;99376.38;346063;28;1464;-78
2022/11/16 00:38:30;;;;;;;368.95;126.00;;;;;;;6.36;93.17;99375.50;346347;28;1254;-78
2022/11/16 00:38:40;;;;;;;368.57;124.47;;;;;;;6.36;93.47;99372.91;343531;28;1534;-77
2022/11/16 00:38:51;;;;;;;364.70;121.93;;;;;;;6.37;93.05;99368.56;345010;28;1259;-78
2022/11/16 00:39:02;;;;;;;362.70;119.70;;;;;;;6.36;93.54;99377.25;343703;28;1082;-78
2022/11/16 00:39:13;;;;;;;359.55;118.25;;;;;;;6.36;93.11;99372.91;343345;28;1176;-76
2022/11/16 00:39:23;;;;;;;362.05;117.60;;;;;;;6.37;93.26;99371.16;341349;28;3835;-77
2022/11/16 00:39:34;;;;;;;367.20;120.83;;;;;;;6.39;93.34;99374.56;340809;28;5913;-77
2022/11/16 00:39:44;;;;;;;371.88;122.65;;;;;;;6.38;93.31;99370.28;340628;29;1254;-78
2022/11/16 00:39:55;;;;;;;368.37;124.17;;;;;;;6.40;92.83;99376.28;345328;28;1909;-78
2022/11/16 00:40:06;;;;;;;363.08;121.70;;;;;;;6.41;92.92;99376.25;346663;28;3425;-79
2022/11/16 00:40:16;;;;;;;361.80;119.40;;;;;;;6.41;93.17;99380.59;343679;28;1563;-79
2022/11/16 00:40:26;;;;;;;362.47;119.97;;;;;;;6.40;92.96;99384.09;339662;29;830;-78
2022/11/16 00:40:37;;;;;;;364.25;121.57;;;;;;;6.39;93.37;99375.44;343521;28;1359;-78
2022/11/16 00:40:47;;;;;;;363.63;122.63;;;;;;;6.38;93.06;99370.28;342243;28;1237;-78
2022/11/16 00:40:58;;;;;;;366.40;122.95;;;;;;;6.38;92.92;99375.47;339080;29;1407;-78
2022/11/16 00:41:08;;;;;;;365.73;122.53;;;;;;;6.39;92.99;99371.97;339089;29;2014;-77
2022/11/16 00:41:19;;;;;;;361.92;121.05;;;;;;;6.39;93.19;99378.03;337702;29;1492;-78
2022/11/16 00:41:30;;;;;;;358.63;120.97;;;;;;;6.38;93.22;99380.66;337933;29;1408;-78
2022/11/16 00:41:41;;;;;;;360.65;121.38;;;;;;;6.37;92.95;99378.97;336367;29;1403;-78
2022/11/16 00:41:51;;;;;;;359.70;123.03;;;;;;;6.36;93.24;99385.06;338257;29;1945;-77
2022/11/16 00:42:02;;;;;;;362.43;123.17;;;;;;;6.33;93.38;99371.25;337166;29;898;-79
2022/11/16 00:42:13;;;;;;;362.58;121.40;;;;;;;6.30;93.13;99373.94;334828;29;1891;-78
2022/11/16 00:42:24;;;;;;;363.60;121.10;;;;;;;6.29;93.57;99377.44;335492;29;991;-78
2022/11/16 00:42:34;;;;;;;360.90;118.68;;;;;;;6.28;93.57;99378.31;335929;29;1216;-78
2022/11/16 00:42:44;;;;;;;358.00;119.07;;;;;;;6.28;93.13;99380.91;334508;29;1304;-78
2022/11/16 00:42:55;;;;;;;360.00;119.63;;;;;;;6.28;93.49;99378.31;332980;29;1219;-78
2022/11/16 00:43:07;;;;;;;361.97;122.07;;;;;;;6.27;93.47;99379.22;330884;29;1225;-79
2022/11/16 00:43:17;;;;;;;357.83;120.40;;;;;;;6.27;93.61;99374.03;333366;29;960;-78
2022/11/16 00:43:27;;;;;;;358.03;122.63;;;;;;;6.26;93.38;99377.50;334827;29;1653;-79
2022/11/16 00:43:38;;;;;;;362.58;124.10;;;;;;;6.26;93.79;99379.25;335668;29;1495;-78
2022/11/16 00:43:49;;;;;;;366.40;124.93;;;;;;;6.23;93.50;99372.41;337064;29;1496;-78
2022/11/16 00:43:59;;;;;;;367.02;125.93;;;;;;;6.23;93.39;99376.75;335505;29;1755;-77
2022/11/16 00:44:10;;;;;;;364.13;126.50;;;;;;;6.18;93.56;99379.47;335107;29;2163;-77
2022/11/16 00:44:20;;;;;;;363.70;125.97;;;;;;;6.19;93.70;99380.31;335827;29;1212;-78
2022/11/16 00:44:31;;;;;;;365.50;123.72;;;;;;;6.18;93.58;99383.81;334522;29;1719;-78
2022/11/16 00:44:41;;;;;;;368.90;125.13;;;;;;;6.15;93.93;99379.53;330059;29;1288;-78
2022/11/16 00:44:51;;;;;;;366.92;123.38;;;;;;;6.14;93.78;99372.63;329497;29;1218;-77
2022/11/16 00:45:02;;;;;;;369.07;127.37;;;;;;;6.18;93.56;99376.84;330282;29;1760;-78
2022/11/16 00:45:13;;;;;;;367.58;125.95;;;;;;;6.18;93.70;99378.59;329085;29;1915;-77
2022/11/16 00:45:23;;;;;;;366.70;127.57;;;;;;;6.18;93.65;99379.47;324065;30;2058;-77
2022/11/16 00:45:34;;;;;;;365.33;127.57;;;;;;;6.19;94.05;99380.31;323514;30;1257;-78
2022/11/16 00:45:44;;;;;;;364.27;128.02;;;;;;;6.18;93.68;99379.47;325077;30;2356;-78
2022/11/16 00:45:54;;;;;;;364.07;128.10;;;;;;;6.19;93.67;99372.50;322044;30;2432;-77
2022/11/16 00:46:05;;;;;;;364.75;126.80;;;;;;;6.19;93.97;99378.56;317420;31;2143;-77
2022/11/16 00:46:15;;;;;;;364.43;128.80;;;;;;;6.19;93.47;99381.16;320271;30;2550;-77
2022/11/16 00:46:26;;;;;;;364.07;128.00;;;;;;;6.19;93.92;99372.50;320667;30;2608;-78
2022/11/16 00:46:36;;;;;;;368.63;128.93;;;;;;;6.19;93.45;99380.31;321070;30;1332;-78
2022/11/16 00:46:47;;;;;;;368.73;124.07;;;;;;;6.21;93.60;99381.13;317560;31;958;-77
2022/11/16 00:46:57;;;;;;;366.03;124.40;;;;;;;6.20;93.93;99372.47;317147;31;1571;-78
2022/11/16 00:47:07;;;;;;;362.57;125.80;;;;;;;6.19;93.56;99370.78;316801;31;2063;-77
2022/11/16 00:47:18;;;;;;;364.13;128.48;;;;;;;6.20;93.47;99376.81;313116;31;855;-77
2022/11/16 00:47:28;;;;;;;368.13;128.33;;;;;;;6.21;93.88;99376.78;310386;31;2897;-77
2022/11/16 00:47:38;;;;;;;370.92;127.07;;;;;;;6.23;93.49;99372.41;308764;31;3075;-78
2022/11/16 00:47:49;;;;;;;373.80;129.27;;;;;;;6.22;93.55;99375.88;309917;31;2452;-77
2022/11/16 00:47:59;;;;;;;373.02;130.23;;;;;;;6.20;93.59;99372.47;313592;31;3019;-77
2022/11/16 00:48:10;;;;;;;371.30;130.10;;;;;;;6.19;93.66;99375.97;314032;31;3046;-78
2022/11/16 00:48:20;;;;;;;370.20;131.07;;;;;;;6.22;94.01;99383.69;310835;31;1455;-77
2022/11/16 00:48:31;;;;;;;374.20;131.37;;;;;;;6.20;93.88;99382.88;307152;31;3568;-78
2022/11/16 00:48:41;;;;;;;375.23;130.63;;;;;;;6.22;93.65;99377.63;306693;31;6176;-78
2022/11/16 00:48:52;;;;;;;369.20;126.97;;;;;;;6.22;93.52;99378.47;311225;31;6296;-78
2022/11/16 00:49:04;;;;;;;369.27;128.25;;;;;;;6.23;93.74;99375.00;311538;31;2515;-77
2022/11/16 00:49:15;;;;;;;365.52;125.75;;;;;;;6.22;93.58;99375.88;308394;31;6315;-78
2022/11/16 00:49:25;;;;;;;366.27;127.35;;;;;;;6.25;93.74;99388.78;307345;31;3501;-78
2022/11/16 00:49:37;;;;;;;358.60;124.70;;;;;;;6.24;93.55;99376.69;309775;31;1323;-78
2022/11/16 00:49:47;;;;;;;360.48;127.18;;;;;;;6.25;93.90;99381.00;301217;32;1604;-78
2022/11/16 00:49:58;;;;;;;365.40;127.78;;;;;;;6.26;93.92;99380.09;301756;32;4970;-78
2022/11/16 00:50:08;;;;;;;369.60;127.93;;;;;;;6.26;93.89;99381.84;300805;32;4500;-77
2022/11/16 00:50:18;;;;;;;371.30;129.85;;;;;;;6.26;93.75;99381.84;294426;33;1268;-78
2022/11/16 00:50:29;;;;;;;368.17;130.03;;;;;;;6.25;93.74;99383.59;296445;32;4888;-78
2022/11/16 00:50:39;;;;;;;366.95;128.80;;;;;;;6.26;93.83;99377.50;296769;33;4002;-77
2022/11/16 00:50:50;;;;;;;364.47;127.27;;;;;;;6.27;93.95;99376.63;296220;33;1359;-77
2022/11/16 00:51:00;;;;;;;370.53;128.03;;;;;;;6.25;93.51;99375.81;290795;33;3897;-77
2022/11/16 00:51:11;;;;;;;372.85;130.60;;;;;;;6.26;93.70;99372.31;287561;33;2802;-77
2022/11/16 00:51:22;;;;;;;375.08;131.57;;;;;;;6.24;93.36;99371.50;288344;33;3416;-78
2022/11/16 00:51:33;;;;;;;372.02;130.48;;;;;;;6.25;93.63;99370.59;288394;34;1320;-79
2022/11/16 00:51:43;;;;;;;368.80;128.75;;;;;;;6.25;93.68;99370.59;285533;34;5067;-78
2022/11/16 00:51:54;;;;;;;370.73;128.93;;;;;;;6.26;93.66;99366.25;285098;34;6457;-77
2022/11/16 00:52:04;;;;;;;370.90;131.23;;;;;;;6.27;93.38;99378.34;285537;34;1268;-77
2022/11/16 00:52:15;;;;;;;372.77;133.30;;;;;;;6.27;93.39;99374.03;282314;34;6808;-78
2022/11/16 00:52:25;;;;;;;369.23;130.13;;;;;;;6.25;93.25;99380.16;279467;34;7674;-77
2022/11/16 00:52:35;;;;;;;366.77;128.13;;;;;;;6.25;93.46;99373.22;278365;35;1197;-78
2022/11/16 00:52:46;;;;;;;361.98;125.65;;;;;;;6.26;93.76;99377.50;275467;35;7927;-78
2022/11/16 00:52:56;;;;;;;365.27;129.97;;;;;;;6.27;93.67;99376.63;276919;35;6144;-78
2022/11/16 00:53:07;;;;;;;369.35;131.63;;;;;;;6.27;93.46;99374.03;276234;35;5792;-78
2022/11/16 00:53:18;;;;;;;372.13;134.23;;;;;;;6.27;93.43;99373.16;272516;36;864;-77
2022/11/16 00:53:28;;;;;;;369.88;132.38;;;;;;;6.27;93.31;99368.81;270711;36;4210;-77
2022/11/16 00:53:40;;;;;;;369.75;131.07;;;;;;;6.27;93.29;99374.03;269752;36;5246;-78
2022/11/16 00:53:51;;;;;;;370.00;126.15;;;;;;;6.27;93.36;99374.03;270910;36;1469;-79
2022/11/16 00:54:01;;;;;;;374.23;127.53;;;;;;;6.28;93.47;99370.53;269468;36;7794;-78
2022/11/16 00:54:12;;;;;;;369.13;128.75;;;;;;;6.28;93.20;99370.53;268664;36;8476;-78
2022/11/16 00:55:59;;;;;;;354.81;113.59;;;;;;;6.19;93.58;99370.78;2501922;27;20477;-77
2022/11/16 00:56:10;;;;;;;362.63;122.57;;;;;;;6.18;93.30;99366.47;352417;28;2348;-77
2022/11/16 00:56:20;;;;;;;357.00;119.60;;;;;;;6.17;93.87;99367.38;350572;28;891;-77
2022/11/16 00:56:30;;;;;;;359.30;120.83;;;;;;;6.15;93.78;99363.94;349136;28;1211;-77